Time;durP1;ratioP1;P1;durP2;ratioP2;P2;SDS_P1;SDS_P2;PMS_P1;PMS_P2;Temp;Humidity;BMP_temperature;BMP_pressure;BME280_temperature;BME280_humidity;BME280_pressure;Samples;Min_cycle;Max_cycle;Signal;HPM_P1;HPM_P2
2021/12/26 00:01:56;;;;;;;9.40;2.40;;;;;;;-5.25;87.24;99395.60;102115;1317;71633;-68
2021/12/26 00:04:45;;;;;;;8.70;2.80;;;;;;;-5.32;87.45;99400.08;102534;1310;59773;-67
2021/12/26 00:07:34;;;;;;;11.10;3.10;;;;;;;-5.39;87.65;99399.38;102285;1311;59711;-67
2021/12/26 00:10:25;;;;;;;11.90;2.30;;;;;;;-5.47;87.75;99397.13;102271;1310;71795;-67
2021/12/26 00:13:15;;;;;;;8.80;3.50;;;;;;;-5.52;87.80;99399.33;102203;1314;68369;-67
2021/12/26 00:16:07;;;;;;;8.10;2.70;;;;;;;-5.55;87.95;99404.22;101962;1311;1002949;-67
2021/12/26 00:18:56;;;;;;;10.80;2.80;;;;;;;-5.57;88.40;99407.38;102388;1316;59812;-67
2021/12/26 00:21:45;;;;;;;9.50;2.80;;;;;;;-5.57;88.63;99407.04;102077;1316;59711;-67
2021/12/26 00:24:34;;;;;;;9.80;2.60;;;;;;;-5.56;88.83;99404.25;100921;1313;1003939;-68
2021/12/26 00:27:23;;;;;;;10.10;2.90;;;;;;;-5.53;89.32;99402.27;102731;1310;68223;-67
2021/12/26 00:30:19;;;;;;;8.10;2.50;;;;;;;-5.53;89.61;99402.10;102422;1313;73126;-68
2021/12/26 00:33:18;;;;;;;7.50;2.20;;;;;;;-5.52;89.49;99408.31;102077;1316;59785;-67
2021/12/26 00:36:08;;;;;;;9.00;3.10;;;;;;;-5.52;90.28;99403.46;102061;1313;60148;-67
2021/12/26 00:39:03;;;;;;;10.90;2.70;;;;;;;-5.50;90.62;99400.48;101613;1314;1002991;-67
2021/12/26 00:41:54;;;;;;;12.20;3.20;;;;;;;-5.46;90.49;99394.00;101786;1310;1003209;-68
2021/12/26 00:44:43;;;;;;;12.30;2.90;;;;;;;-5.41;91.07;99387.67;102295;1313;71610;-68
2021/12/26 00:47:33;;;;;;;8.20;2.20;;;;;;;-5.36;90.92;99385.13;102494;1310;59776;-67
2021/12/26 00:50:29;;;;;;;9.20;2.70;;;;;;;-5.33;90.69;99389.38;101467;1311;1003928;-67
2021/12/26 00:53:19;;;;;;;8.50;2.70;;;;;;;-5.33;90.72;99385.41;101493;1313;1003820;-68
2021/12/26 00:56:08;;;;;;;8.90;2.60;;;;;;;-5.33;91.24;99387.30;102108;1310;66897;-67
2021/12/26 00:58:57;;;;;;;8.00;2.90;;;;;;;-5.32;91.20;99393.52;102453;1316;71941;-68
2021/12/26 01:01:48;;;;;;;12.30;2.70;;;;;;;-5.29;91.07;99389.12;102350;1313;59793;-68
2021/12/26 01:04:39;;;;;;;9.30;2.50;;;;;;;-5.27;91.27;99388.56;102349;1313;61258;-68
2021/12/26 01:07:46;;;;;;;8.70;2.60;;;;;;;-5.25;91.06;99389.89;101739;1314;1003873;-68
2021/12/26 01:10:50;;;;;;;7.80;2.80;;;;;;;-5.26;91.08;99396.13;102357;1310;67920;-68
2021/12/26 01:13:43;;;;;;;9.50;3.00;;;;;;;-5.29;91.08;99399.31;102138;1316;71544;-67
2021/12/26 01:17:11;;;;;;;7.80;2.50;;;;;;;-5.34;90.83;99398.41;101693;1311;1003042;-68
2021/12/26 01:20:38;;;;;;;9.20;2.70;;;;;;;-5.37;90.95;99405.56;102185;1314;59689;-69
2021/12/26 01:23:29;;;;;;;13.00;3.80;;;;;;;-5.42;90.82;99400.82;102340;1316;73377;-68
2021/12/26 01:26:19;;;;;;;7.30;2.60;;;;;;;-5.43;91.06;99401.02;101896;1316;68252;-67
2021/12/26 01:29:07;;;;;;;12.10;2.70;;;;;;;-5.48;91.14;99400.98;102104;1316;72351;-67
2021/12/26 01:32:01;;;;;;;9.00;2.60;;;;;;;-5.54;91.98;99397.98;102090;1316;60393;-67
2021/12/26 01:35:08;;;;;;;7.00;2.10;;;;;;;-5.61;91.77;99393.82;102605;1314;59615;-67
2021/12/26 01:38:13;;;;;;;13.10;4.00;;;;;;;-5.69;92.16;99399.86;102368;1314;72228;-66
2021/12/26 01:41:09;;;;;;;11.60;3.60;;;;;;;-5.73;92.70;99402.22;101939;1313;67445;-67
2021/12/26 01:44:19;;;;;;;12.40;4.40;;;;;;;-5.77;92.77;99402.64;102151;1317;72331;-67
2021/12/26 01:47:10;;;;;;;15.50;3.70;;;;;;;-5.81;93.08;99403.76;102087;1313;59724;-68
2021/12/26 01:50:01;;;;;;;12.10;3.30;;;;;;;-5.84;93.47;99402.62;102028;1319;59618;-67
2021/12/26 01:52:49;;;;;;;11.20;3.50;;;;;;;-5.90;93.45;99405.33;102079;1317;72139;-66
2021/12/26 01:55:45;;;;;;;11.70;3.80;;;;;;;-5.96;94.12;99401.30;102300;1310;68191;-67
2021/12/26 01:58:36;;;;;;;12.50;4.50;;;;;;;-6.00;94.33;99404.52;102293;1317;71846;-67
2021/12/26 02:01:34;;;;;;;12.20;3.70;;;;;;;-6.02;94.37;99400.77;102194;1313;60146;-67
2021/12/26 02:04:27;;;;;;;13.40;4.10;;;;;;;-6.03;94.98;99396.65;102170;1310;60904;-67
2021/12/26 02:07:16;;;;;;;8.10;3.10;;;;;;;-6.05;94.67;99393.40;102040;1316;73196;-66
2021/12/26 02:10:12;;;;;;;11.30;3.90;;;;;;;-6.07;95.74;99390.17;102106;1316;68147;-67
2021/12/26 02:13:01;;;;;;;13.00;4.40;;;;;;;-6.12;95.63;99384.23;102318;1316;73244;-67
2021/12/26 02:15:52;;;;;;;14.30;4.30;;;;;;;-6.09;96.16;99384.16;102647;1311;59824;-67
2021/12/26 02:18:55;;;;;;;17.50;6.00;;;;;;;-6.07;96.51;99386.20;101945;1316;60725;-67
2021/12/26 02:22:09;;;;;;;8.30;2.90;;;;;;;-6.05;96.17;99385.64;102198;1314;73340;-67
2021/12/26 02:25:13;;;;;;;11.20;4.30;;;;;;;-6.03;96.91;99384.71;102453;1316;69161;-68
2021/12/26 02:28:01;;;;;;;7.90;2.70;;;;;;;-6.03;96.66;99377.64;102316;1311;72846;-68
2021/12/26 02:30:51;;;;;;;10.50;3.60;;;;;;;-6.01;97.22;99378.30;101384;1311;1003223;-68
2021/12/26 02:33:40;;;;;;;11.70;3.90;;;;;;;-6.00;97.53;99378.45;102173;1311;60499;-68
2021/12/26 02:36:28;;;;;;;17.50;6.40;;;;;;;-5.97;97.86;99380.27;102317;1311;73214;-67
2021/12/26 02:39:17;;;;;;;10.10;4.30;;;;;;;-5.92;98.27;99383.80;102020;1310;67059;-68
2021/12/26 02:42:07;;;;;;;10.50;3.60;;;;;;;-5.85;98.81;99387.42;102148;1313;73281;-68
2021/12/26 02:44:57;;;;;;;10.60;3.30;;;;;;;-5.81;98.43;99395.29;102448;1310;59780;-68
2021/12/26 02:47:50;;;;;;;11.50;3.70;;;;;;;-5.78;98.31;99394.18;102266;1311;59727;-67
2021/12/26 02:50:42;;;;;;;10.10;3.40;;;;;;;-5.76;98.35;99392.25;102288;1311;73498;-67
2021/12/26 02:53:32;;;;;;;9.40;3.50;;;;;;;-5.74;98.67;99405.01;101888;1313;68015;-67
2021/12/26 02:56:21;;;;;;;12.70;5.00;;;;;;;-5.69;98.70;99410.94;101178;1314;1003124;-67
2021/12/26 02:59:09;;;;;;;11.30;4.00;;;;;;;-5.65;98.30;99409.30;102071;1310;59666;-67
2021/12/26 03:01:58;;;;;;;10.40;3.20;;;;;;;-5.61;98.59;99413.17;102123;1311;61131;-67
2021/12/26 03:04:47;;;;;;;8.90;2.90;;;;;;;-5.58;97.98;99413.28;101568;1317;1003212;-68
2021/12/26 03:07:36;;;;;;;9.60;3.30;;;;;;;-5.57;98.06;99417.41;102260;1311;65922;-67
2021/12/26 03:10:26;;;;;;;13.10;4.00;;;;;;;-5.57;97.64;99417.60;102252;1313;72735;-68
2021/12/26 03:13:15;;;;;;;10.70;4.40;;;;;;;-5.57;97.86;99418.98;102408;1313;60114;-68
2021/12/26 03:16:04;;;;;;;10.60;3.40;;;;;;;-5.57;97.48;99414.48;102411;1314;60349;-67
2021/12/26 03:19:01;;;;;;;9.60;3.30;;;;;;;-5.55;97.29;99416.67;102238;1313;73444;-68
2021/12/26 03:21:54;;;;;;;9.50;2.80;;;;;;;-5.53;97.47;99413.34;102771;1311;68134;-67
2021/12/26 03:24:43;;;;;;;12.10;3.00;;;;;;;-5.50;97.67;99415.20;102384;1314;72831;-67
2021/12/26 03:27:32;;;;;;;8.60;2.80;;;;;;;-5.50;97.62;99413.79;102554;1311;59594;-67
2021/12/26 03:30:27;;;;;;;7.20;2.90;;;;;;;-5.51;97.71;99418.65;101659;1314;1003690;-66
2021/12/26 03:33:16;;;;;;;13.50;5.10;;;;;;;-5.51;97.76;99417.63;102147;1316;72044;-66
2021/12/26 03:36:05;;;;;;;10.30;4.30;;;;;;;-5.47;97.80;99427.23;102428;1311;68193;-66
2021/12/26 03:38:54;;;;;;;7.40;2.50;;;;;;;-5.45;97.78;99422.52;102487;1313;72710;-67
2021/12/26 03:41:51;;;;;;;8.60;2.70;;;;;;;-5.43;97.13;99419.19;102183;1314;59647;-66
2021/12/26 03:44:39;;;;;;;14.10;3.60;;;;;;;-5.44;97.03;99415.73;102378;1311;60612;-67
2021/12/26 03:47:29;;;;;;;8.80;2.60;;;;;;;-5.45;97.21;99420.95;101646;1314;1003118;-67
2021/12/26 03:50:22;;;;;;;12.40;3.90;;;;;;;-5.48;97.02;99427.92;102396;1313;66782;-67
2021/12/26 03:53:13;;;;;;;11.60;3.80;;;;;;;-5.48;97.04;99425.52;102400;1313;74559;-67
2021/12/26 03:56:05;;;;;;;14.00;3.80;;;;;;;-5.48;97.26;99426.89;102435;1311;59794;-67
2021/12/26 03:58:54;;;;;;;12.20;3.10;;;;;;;-5.47;96.89;99427.55;101866;1310;60400;-67
2021/12/26 04:01:44;;;;;;;8.30;3.20;;;;;;;-5.47;97.07;99431.20;102084;1310;72401;-67
2021/12/26 04:04:33;;;;;;;11.00;3.50;;;;;;;-5.48;96.86;99431.55;102359;1316;68410;-66
2021/12/26 04:07:21;;;;;;;9.80;2.70;;;;;;;-5.51;96.53;99431.81;101700;1314;1004013;-67
2021/12/26 04:10:17;;;;;;;12.20;4.00;;;;;;;-5.55;96.87;99427.74;102331;1310;59711;-66
2021/12/26 04:13:09;;;;;;;13.00;4.30;;;;;;;-5.56;96.69;99435.53;102207;1316;60598;-67
2021/12/26 04:15:58;;;;;;;10.20;3.90;;;;;;;-5.56;96.48;99440.91;102248;1310;72236;-66
2021/12/26 04:18:47;;;;;;;10.20;2.70;;;;;;;-5.57;96.55;99441.45;102345;1317;68238;-67
2021/12/26 04:21:35;;;;;;;9.30;2.80;;;;;;;-5.58;96.16;99441.65;102304;1314;72916;-67
2021/12/26 04:24:24;;;;;;;7.50;2.20;;;;;;;-5.61;96.50;99448.79;101362;1314;1002971;-67
2021/12/26 04:27:16;;;;;;;8.70;2.60;;;;;;;-5.64;96.42;99458.19;102420;1310;60634;-67
2021/12/26 04:30:10;;;;;;;10.00;2.70;;;;;;;-5.68;96.42;99455.66;102524;1310;73552;-66
2021/12/26 04:32:58;;;;;;;13.40;3.50;;;;;;;-5.73;96.40;99460.29;102499;1314;68000;-67
2021/12/26 04:35:46;;;;;;;12.00;4.10;;;;;;;-5.76;96.60;99458.10;102755;1313;73099;-66
2021/12/26 04:38:36;;;;;;;9.30;3.80;;;;;;;-5.76;96.37;99462.77;102253;1314;61078;-66
2021/12/26 04:41:25;;;;;;;11.30;3.70;;;;;;;-5.77;96.85;99466.92;102403;1314;60976;-66
2021/12/26 04:44:54;;;;;;;10.10;2.90;;;;;;;-5.76;96.57;99469.69;102299;1311;73490;-66
2021/12/26 04:48:03;;;;;;;8.60;2.60;;;;;;;-5.77;96.46;99466.24;102382;1311;67886;-66
2021/12/26 04:50:53;;;;;;;10.20;2.80;;;;;;;-5.79;96.01;99465.08;102478;1310;72028;-67
2021/12/26 04:53:43;;;;;;;8.70;2.40;;;;;;;-5.84;95.91;99457.90;102357;1311;59703;-66
2021/12/26 04:56:32;;;;;;;9.40;2.80;;;;;;;-5.87;96.42;99455.20;101921;1310;1003279;-66
2021/12/26 04:59:20;;;;;;;10.80;3.20;;;;;;;-5.88;96.47;99451.08;102350;1314;72035;-67
2021/12/26 05:02:15;;;;;;;10.50;4.10;;;;;;;-5.89;96.86;99442.12;102217;1313;68769;-67
2021/12/26 05:05:27;;;;;;;9.30;3.40;;;;;;;-5.86;97.02;99445.51;102403;1310;71831;-67
2021/12/26 05:08:20;;;;;;;9.30;2.90;;;;;;;-5.83;96.88;99449.08;102584;1311;59787;-67
2021/12/26 05:11:09;;;;;;;9.40;2.30;;;;;;;-5.83;96.48;99449.42;102431;1314;60472;-67
2021/12/26 05:13:57;;;;;;;7.00;2.30;;;;;;;-5.85;96.89;99451.36;102343;1309;71239;-67
2021/12/26 05:16:47;;;;;;;9.90;3.40;;;;;;;-5.85;97.14;99454.99;102144;1311;67353;-67
2021/12/26 05:19:36;;;;;;;15.50;4.00;;;;;;;-5.86;97.03;99452.94;102231;1314;71842;-66
2021/12/26 05:22:24;;;;;;;13.70;4.00;;;;;;;-5.83;96.73;99458.77;102124;1314;59682;-66
2021/12/26 05:25:14;;;;;;;9.00;2.70;;;;;;;-5.81;96.95;99464.41;102128;1310;60787;-67
2021/12/26 05:28:04;;;;;;;8.00;2.50;;;;;;;-5.81;96.75;99461.13;102054;1314;71792;-67
2021/12/26 05:30:52;;;;;;;9.70;3.00;;;;;;;-5.81;96.82;99463.02;102434;1311;66854;-67
2021/12/26 05:33:46;;;;;;;8.50;3.30;;;;;;;-5.82;96.70;99459.23;102580;1311;73029;-67
2021/12/26 05:36:38;;;;;;;9.00;3.30;;;;;;;-5.83;97.06;99462.21;101838;1311;1003925;-67
2021/12/26 05:39:25;;;;;;;10.70;3.80;;;;;;;-5.77;97.99;99467.27;101594;1311;1002963;-67
2021/12/26 05:42:18;;;;;;;11.60;3.90;;;;;;;-5.72;97.25;99465.10;102467;1310;72302;-67
2021/12/26 05:45:10;;;;;;;9.00;3.20;;;;;;;-5.71;97.12;99464.56;102115;1314;67148;-67
2021/12/26 05:48:09;;;;;;;6.30;2.10;;;;;;;-5.71;96.70;99465.77;104754;1310;73454;-67
2021/12/26 05:50:59;;;;;;;10.20;2.10;;;;;;;-5.70;96.77;99464.36;102461;1311;59812;-67
2021/12/26 05:54:05;;;;;;;8.70;2.80;;;;;;;-5.69;96.84;99465.72;102402;1316;60550;-68
2021/12/26 05:56:54;;;;;;;7.80;2.80;;;;;;;-5.70;96.86;99473.52;102421;1311;71818;-68
2021/12/26 05:59:46;;;;;;;14.30;4.80;;;;;;;-5.72;96.71;99472.01;102406;1310;65940;-67
2021/12/26 06:02:45;;;;;;;11.10;3.70;;;;;;;-5.71;96.43;99477.86;102167;1310;71861;-67
2021/12/26 06:05:34;;;;;;;9.70;3.20;;;;;;;-5.71;96.42;99478.73;102297;1313;59788;-68
2021/12/26 06:08:23;;;;;;;9.60;3.20;;;;;;;-5.72;96.00;99481.34;102395;1310;59818;-67
2021/12/26 06:11:11;;;;;;;9.00;3.00;;;;;;;-5.74;96.20;99484.48;102170;1313;72372;-67
2021/12/26 06:14:00;;;;;;;12.20;3.30;;;;;;;-5.78;95.95;99491.48;101977;1316;67111;-69
2021/12/26 06:16:48;;;;;;;10.40;2.40;;;;;;;-5.82;95.98;99492.06;102282;1311;71889;-68
2021/12/26 06:19:57;;;;;;;9.80;3.30;;;;;;;-5.86;95.59;99491.48;102770;1311;59684;-68
2021/12/26 06:22:57;;;;;;;15.00;5.20;;;;;;;-5.92;95.57;99488.14;102011;1311;1015850;-68
2021/12/26 06:26:24;;;;;;;8.70;2.80;;;;;;;-5.94;96.13;99487.13;102782;1316;72052;-69
2021/12/26 06:29:13;;;;;;;11.20;3.70;;;;;;;-5.94;96.64;99490.08;102416;1310;66884;-68
2021/12/26 06:32:16;;;;;;;11.30;3.00;;;;;;;-5.95;96.24;99486.98;102200;1310;1003243;-69
2021/12/26 06:35:42;;;;;;;8.90;3.50;;;;;;;-5.98;96.17;99492.60;101753;1317;1003845;-68
2021/12/26 06:38:50;;;;;;;8.70;3.30;;;;;;;-6.03;96.63;99493.73;102348;1314;60876;-69
2021/12/26 06:42:17;;;;;;;12.70;5.30;;;;;;;-6.06;96.70;99501.07;102258;1316;73985;-68
2021/12/26 06:45:10;;;;;;;13.10;5.20;;;;;;;-6.07;96.63;99505.72;102556;1314;67062;-68
2021/12/26 06:48:12;;;;;;;14.30;4.80;;;;;;;-6.08;96.30;99504.87;102480;1311;73447;-69
2021/12/26 06:51:03;;;;;;;12.30;4.20;;;;;;;-6.07;96.39;99502.63;102681;1310;59812;-69
2021/12/26 06:53:51;;;;;;;9.20;3.40;;;;;;;-6.08;96.27;99504.71;102544;1310;59600;-69
2021/12/26 06:56:39;;;;;;;9.10;3.70;;;;;;;-6.09;96.40;99505.09;101823;1314;1003202;-68
2021/12/26 06:59:28;;;;;;;7.70;2.70;;;;;;;-6.11;96.56;99510.98;102467;1314;67092;-68
2021/12/26 07:02:17;;;;;;;9.70;4.00;;;;;;;-6.13;96.49;99509.48;102616;1310;72384;-72
2021/12/26 07:05:14;;;;;;;14.50;5.20;;;;;;;-6.14;96.96;99519.50;102849;1316;59849;-73
2021/12/26 07:08:09;;;;;;;12.80;5.20;;;;;;;-6.11;96.99;99520.83;103012;1310;59724;-72
2021/12/26 07:11:00;;;;;;;13.60;5.80;;;;;;;-6.07;97.53;99519.55;102389;1317;73806;-71
2021/12/26 07:13:48;;;;;;;12.60;5.50;;;;;;;-6.04;97.28;99528.30;102406;1318;66759;-73
2021/12/26 07:16:36;;;;;;;11.40;4.40;;;;;;;-5.99;97.60;99531.66;102563;1314;72869;-71
2021/12/26 07:19:27;;;;;;;11.90;3.70;;;;;;;-5.99;97.16;99531.31;102502;1314;59746;-70
2021/12/26 07:22:18;;;;;;;14.80;6.00;;;;;;;-5.94;98.07;99543.81;102400;1313;59707;-71
2021/12/26 07:25:08;;;;;;;17.80;7.10;;;;;;;-5.91;97.32;99542.70;102548;1313;71945;-70
2021/12/26 07:27:58;;;;;;;22.50;8.50;;;;;;;-5.88;97.67;99551.14;103276;1311;68002;-70
2021/12/26 07:31:09;;;;;;;17.40;7.20;;;;;;;-5.84;97.50;99556.05;102743;1316;72134;-68
2021/12/26 07:33:58;;;;;;;13.20;5.40;;;;;;;-5.78;97.39;99558.36;102924;1310;60347;-67
2021/12/26 07:36:48;;;;;;;15.10;5.70;;;;;;;-5.72;97.77;99560.16;101894;1314;1003202;-68
2021/12/26 07:39:50;;;;;;;14.10;4.60;;;;;;;-5.64;97.90;99562.60;102593;1310;72949;-68
2021/12/26 07:42:40;;;;;;;11.80;5.20;;;;;;;-5.57;97.69;99567.47;102261;1311;66946;-68
2021/12/26 07:45:57;;;;;;;13.30;4.80;;;;;;;-5.49;97.75;99569.39;102105;1314;1003269;-67
2021/12/26 07:48:49;;;;;;;13.30;4.50;;;;;;;-5.45;97.88;99555.46;102333;1313;59690;-68
2021/12/26 07:52:16;;;;;;;16.10;6.20;;;;;;;-5.29;97.90;99571.41;102783;1311;59788;-68
2021/12/26 07:55:23;;;;;;;21.70;8.30;;;;;;;-5.16;98.01;99568.71;102885;1313;72182;-68
2021/12/26 07:58:30;;;;;;;20.30;8.00;;;;;;;-5.01;97.76;99570.80;102674;1310;66965;-69
2021/12/26 08:01:37;;;;;;;16.50;6.30;;;;;;;-4.85;97.72;99570.63;103187;1317;71712;-69
2021/12/26 08:04:46;;;;;;;13.50;4.80;;;;;;;-4.66;97.26;99578.00;102726;1310;59745;-68
2021/12/26 08:07:45;;;;;;;14.40;5.70;;;;;;;-4.45;97.12;99573.88;102299;1310;1003845;-69
2021/12/26 08:10:35;;;;;;;13.40;5.60;;;;;;;-4.31;96.84;99575.78;101911;1317;1003672;-68
2021/12/26 08:13:24;;;;;;;12.50;5.00;;;;;;;-4.17;95.99;99574.04;102859;1311;65372;-68
2021/12/26 08:16:14;;;;;;;13.80;6.00;;;;;;;-4.01;95.65;99578.15;102713;1310;73421;-68
2021/12/26 08:19:06;;;;;;;16.30;6.40;;;;;;;-3.92;95.15;99577.56;102690;1310;60235;-69
2021/12/26 08:21:54;;;;;;;17.70;7.00;;;;;;;-3.82;94.67;99576.10;102957;1314;59781;-69
2021/12/26 08:24:43;;;;;;;17.40;7.10;;;;;;;-3.68;94.59;99577.97;102752;1311;71150;-68
2021/12/26 08:27:32;;;;;;;11.00;4.80;;;;;;;-3.46;93.82;99576.67;102773;1310;68362;-69
2021/12/26 08:30:30;;;;;;;12.50;5.10;;;;;;;-3.33;93.65;99574.77;102678;1311;73085;-69
2021/12/26 08:33:18;;;;;;;12.00;4.90;;;;;;;-3.02;92.71;99579.73;101949;1313;1002638;-69
2021/12/26 08:36:07;;;;;;;14.90;5.80;;;;;;;-2.42;91.06;99578.80;102720;1313;60119;-69
2021/12/26 08:38:58;;;;;;;14.50;5.50;;;;;;;-1.98;89.64;99573.02;102591;1310;73200;-69
2021/12/26 08:41:47;;;;;;;17.90;6.30;;;;;;;-1.15;87.53;99575.44;102823;1310;67859;-69
2021/12/26 08:44:36;;;;;;;17.40;7.00;;;;;;;0.09;83.97;99573.48;102564;1311;71769;-71
2021/12/26 08:47:25;;;;;;;14.10;5.70;;;;;;;1.33;79.35;99574.44;102884;1314;59703;-72
2021/12/26 08:50:17;;;;;;;14.50;6.30;;;;;;;2.20;74.10;99573.02;102586;1311;59641;-72
2021/12/26 08:53:05;;;;;;;15.70;6.70;;;;;;;2.88;72.22;99576.16;102616;1316;73212;-72
2021/12/26 08:55:57;;;;;;;16.50;6.30;;;;;;;3.31;68.40;99584.67;102754;1314;68238;-73
2021/12/26 08:59:11;;;;;;;16.40;7.00;;;;;;;3.40;64.94;99590.70;103348;1310;72849;-73
2021/12/26 09:02:03;;;;;;;19.50;7.10;;;;;;;3.10;66.96;99593.39;102079;1311;1003661;-73
2021/12/26 09:04:52;;;;;;;15.70;6.70;;;;;;;2.54;66.62;99596.33;102913;1310;59582;-73
2021/12/26 09:07:42;;;;;;;15.80;6.80;;;;;;;2.02;67.20;99599.98;102681;1314;73346;-72
2021/12/26 09:10:30;;;;;;;15.30;6.60;;;;;;;1.49;68.75;99608.16;102611;1313;68752;-72
2021/12/26 09:13:19;;;;;;;14.70;5.70;;;;;;;1.06;69.45;99611.35;102328;1318;73052;-72
2021/12/26 09:16:07;;;;;;;16.10;7.10;;;;;;;0.61;71.10;99614.04;102344;1313;61147;-73
2021/12/26 09:18:55;;;;;;;15.90;6.50;;;;;;;0.18;72.40;99620.09;102506;1310;59676;-73
2021/12/26 09:21:44;;;;;;;18.00;7.50;;;;;;;-0.13;73.91;99623.61;102857;1314;72466;-72
2021/12/26 09:24:33;;;;;;;14.40;6.70;;;;;;;-0.46;74.99;99628.08;102179;1310;1003822;-72
2021/12/26 09:27:22;;;;;;;14.40;6.00;;;;;;;-0.83;76.44;99626.17;102358;1314;73111;-71
2021/12/26 09:30:12;;;;;;;16.20;4.60;;;;;;;-1.14;77.82;99630.25;102567;1311;59727;-72
2021/12/26 09:32:59;;;;;;;14.80;6.30;;;;;;;-1.36;79.28;99629.66;102530;1317;59713;-71
2021/12/26 09:35:51;;;;;;;16.50;6.80;;;;;;;-1.39;80.06;99631.16;102538;1318;71842;-72
2021/12/26 09:38:40;;;;;;;16.70;7.10;;;;;;;-1.38;80.26;99627.48;102807;1311;68060;-72
2021/12/26 09:41:28;;;;;;;19.20;8.00;;;;;;;-1.15;81.28;99634.48;102663;1318;74589;-72
2021/12/26 09:44:18;;;;;;;18.90;7.60;;;;;;;-0.99;80.07;99634.45;102604;1311;59787;-74
2021/12/26 09:47:07;;;;;;;19.40;8.00;;;;;;;-0.83;79.87;99629.46;102737;1310;59865;-72
2021/12/26 09:49:55;;;;;;;19.10;8.60;;;;;;;-0.55;79.12;99632.41;102907;1313;73389;-72
2021/12/26 09:52:49;;;;;;;19.30;7.40;;;;;;;-0.30;78.05;99635.44;102717;1310;68203;-72
2021/12/26 09:55:43;;;;;;;21.10;8.10;;;;;;;-0.07;78.56;99631.39;102665;1310;73364;-72
2021/12/26 09:58:50;;;;;;;20.90;9.00;;;;;;;0.52;76.83;99627.90;102629;1310;59722;-71
2021/12/26 10:01:45;;;;;;;20.40;8.80;;;;;;;0.59;74.94;99626.52;102782;1313;59839;-72
2021/12/26 10:04:54;;;;;;;19.80;7.60;;;;;;;0.80;74.67;99633.30;102624;1311;72217;-72
2021/12/26 10:07:42;;;;;;;23.90;8.70;;;;;;;0.64;73.92;99632.44;103084;1310;68699;-73
2021/12/26 10:10:31;;;;;;;20.00;8.20;;;;;;;0.62;75.09;99633.23;102381;1316;73037;-73
2021/12/26 10:13:56;;;;;;;20.00;8.50;;;;;;;0.94;74.23;99634.61;102655;1310;59737;-72
2021/12/26 10:16:56;;;;;;;18.40;8.60;;;;;;;0.96;73.03;99635.41;102819;1317;60500;-72
2021/12/26 10:19:49;;;;;;;19.60;8.10;;;;;;;1.37;73.71;99635.80;102923;1316;70431;-72
2021/12/26 10:22:38;;;;;;;19.70;8.20;;;;;;;1.83;71.09;99641.88;102097;1317;69597;-72
2021/12/26 10:25:36;;;;;;;18.60;8.20;;;;;;;1.61;70.86;99640.99;102796;1311;70790;-73
2021/12/26 10:28:23;;;;;;;19.70;8.00;;;;;;;1.35;71.28;99641.67;102493;1310;59679;-73
2021/12/26 10:31:11;;;;;;;18.50;8.10;;;;;;;1.58;71.22;99644.29;102338;1314;60704;-73
2021/12/26 10:34:00;;;;;;;19.10;7.00;;;;;;;1.68;71.51;99641.69;102353;1313;73726;-73
2021/12/26 10:37:06;;;;;;;18.00;8.20;;;;;;;2.11;70.52;99638.76;102694;1314;68183;-73
2021/12/26 10:40:26;;;;;;;17.80;9.10;;;;;;;3.28;68.75;99638.82;102694;1310;73319;-73
2021/12/26 10:43:43;;;;;;;17.40;8.40;;;;;;;3.99;66.49;99634.19;101209;1314;1003025;-73
2021/12/26 10:46:32;;;;;;;15.40;8.40;;;;;;;4.18;66.26;99636.96;102379;1314;60687;-73
2021/12/26 10:49:31;;;;;;;17.20;8.00;;;;;;;3.91;67.21;99634.34;102522;1314;73237;-73
2021/12/26 10:52:34;;;;;;;17.00;8.00;;;;;;;3.68;67.75;99641.74;102623;1310;67023;-73
2021/12/26 10:55:42;;;;;;;19.10;8.80;;;;;;;3.53;68.30;99644.17;103049;1311;73303;-73
2021/12/26 10:58:31;;;;;;;18.40;9.20;;;;;;;3.67;68.65;99642.34;102601;1310;59828;-74
2021/12/26 11:01:19;;;;;;;20.30;9.30;;;;;;;4.25;69.78;99642.78;102524;1316;59810;-74
2021/12/26 11:04:11;;;;;;;21.90;9.10;;;;;;;4.73;65.27;99637.80;102329;1311;72172;-75
2021/12/26 11:07:10;;;;;;;16.60;8.10;;;;;;;4.92;66.10;99639.30;102525;1316;68327;-75
2021/12/26 11:10:36;;;;;;;18.10;9.40;;;;;;;5.60;64.94;99640.52;102738;1310;72897;-74
2021/12/26 11:13:30;;;;;;;18.00;8.70;;;;;;;6.13;64.11;99635.02;102656;1314;59802;-73
2021/12/26 11:16:17;;;;;;;23.00;10.90;;;;;;;6.72;62.54;99627.75;102383;1311;59790;-74
2021/12/26 11:19:05;;;;;;;28.00;13.50;;;;;;;7.09;60.33;99625.23;102882;1314;73202;-73
2021/12/26 11:21:53;;;;;;;24.30;11.40;;;;;;;7.48;57.66;99627.41;103197;1313;68207;-73
2021/12/26 11:24:40;;;;;;;28.80;16.30;;;;;;;7.54;58.74;99626.63;103257;1312;70368;-73
2021/12/26 11:27:28;;;;;;;37.20;17.60;;;;;;;7.50;57.67;99627.56;101299;1317;1003781;-73
2021/12/26 11:30:18;;;;;;;40.40;17.80;;;;;;;7.43;57.89;99627.02;102658;1317;59596;-74
2021/12/26 11:33:08;;;;;;;33.40;14.90;;;;;;;7.55;56.15;99631.88;102633;1317;73248;-73
2021/12/26 11:35:57;;;;;;;38.10;17.40;;;;;;;7.79;58.85;99634.48;102794;1311;67165;-73
2021/12/26 11:38:48;;;;;;;30.40;15.80;;;;;;;7.91;56.68;99630.65;102574;1312;72934;-73
2021/12/26 11:42:13;;;;;;;25.80;12.50;;;;;;;7.91;56.59;99635.75;102907;1311;59888;-73
2021/12/26 11:45:52;;;;;;;21.30;11.10;;;;;;;7.66;55.46;99641.07;102752;1310;60559;-74
2021/12/26 11:49:30;;;;;;;18.10;9.40;;;;;;;7.45;54.55;99644.53;102751;1314;71957;-75
2021/12/26 11:52:46;;;;;;;24.40;10.50;;;;;;;6.98;55.71;99645.19;103027;1310;66240;-74
2021/12/26 11:56:20;;;;;;;21.30;10.10;;;;;;;6.59;54.17;99646.95;102940;1316;73571;-70
2021/12/26 11:59:08;;;;;;;23.40;10.70;;;;;;;6.18;57.90;99644.72;102825;1316;59634;-70
2021/12/26 12:01:56;;;;;;;25.60;13.30;;;;;;;5.92;57.50;99650.11;103010;1311;59815;-71
2021/12/26 12:05:10;;;;;;;27.00;12.20;;;;;;;5.85;58.51;99650.57;102361;1317;70889;-72
2021/12/26 12:08:05;;;;;;;26.10;11.30;;;;;;;5.75;57.30;99649.12;102984;1315;67416;-73
2021/12/26 12:10:54;;;;;;;22.60;12.00;;;;;;;5.47;58.79;99651.56;102417;1317;72879;-71
2021/12/26 12:13:53;;;;;;;23.30;11.90;;;;;;;5.16;59.60;99658.94;102766;1310;59606;-71
2021/12/26 12:16:43;;;;;;;26.50;12.30;;;;;;;5.00;61.55;99660.06;103016;1317;59740;-71
2021/12/26 12:19:56;;;;;;;24.30;11.50;;;;;;;4.81;61.38;99657.54;102714;1313;73304;-77
2021/12/26 12:23:08;;;;;;;24.50;11.90;;;;;;;4.58;62.42;99659.96;103063;1316;67094;-73
2021/12/26 12:26:05;;;;;;;23.00;11.00;;;;;;;4.41;62.04;99660.92;102808;1311;71655;-72
2021/12/26 12:28:53;;;;;;;22.00;11.00;;;;;;;4.04;62.46;99655.55;102479;1313;59847;-71
2021/12/26 12:31:41;;;;;;;22.80;11.90;;;;;;;3.62;64.12;99654.05;102674;1317;60144;-72
2021/12/26 12:34:53;;;;;;;22.80;11.90;;;;;;;3.03;65.25;99661.04;102527;1316;72531;-72
2021/12/26 12:37:46;;;;;;;20.80;11.20;;;;;;;2.37;67.51;99665.32;102354;1313;66701;-73
2021/12/26 12:41:03;;;;;;;22.30;11.40;;;;;;;1.80;68.82;99669.27;102590;1312;71530;-72
2021/12/26 12:43:57;;;;;;;20.00;9.50;;;;;;;1.20;70.77;99671.52;102672;1314;60110;-72
2021/12/26 12:47:08;;;;;;;20.70;10.50;;;;;;;0.64;72.12;99671.53;102783;1310;59656;-73
2021/12/26 12:50:04;;;;;;;20.00;8.60;;;;;;;0.09;74.50;99677.52;102395;1317;73931;-73
2021/12/26 12:52:51;;;;;;;21.20;9.70;;;;;;;-0.38;76.00;99684.58;102831;1314;68265;-71
2021/12/26 12:55:42;;;;;;;18.30;9.40;;;;;;;-0.69;78.05;99678.95;103000;1317;73021;-73
2021/12/26 12:58:32;;;;;;;18.80;9.30;;;;;;;-0.93;78.96;99686.28;101849;1311;1003062;-71
2021/12/26 13:01:44;;;;;;;20.30;9.20;;;;;;;-1.16;80.50;99690.58;102428;1316;61173;-71
2021/12/26 13:04:53;;;;;;;19.20;8.10;;;;;;;-1.46;81.32;99694.41;102549;1317;73349;-72
2021/12/26 13:07:41;;;;;;;18.40;7.10;;;;;;;-1.74;82.87;99696.72;103254;1314;67955;-71
2021/12/26 13:10:29;;;;;;;21.20;9.20;;;;;;;-1.94;83.92;99706.27;102415;1311;72980;-71
2021/12/26 13:13:21;;;;;;;25.20;11.00;;;;;;;-2.08;84.83;99709.81;102378;1310;59705;-72
2021/12/26 13:16:10;;;;;;;24.10;10.60;;;;;;;-2.16;85.84;99711.78;102870;1310;59772;-72
2021/12/26 13:19:09;;;;;;;25.30;10.50;;;;;;;-2.24;86.28;99714.45;102908;1317;73886;-73
2021/12/26 13:22:00;;;;;;;28.10;11.80;;;;;;;-2.29;86.96;99715.34;102625;1313;68188;-72
2021/12/26 13:24:48;;;;;;;24.20;10.30;;;;;;;-2.37;88.17;99717.30;102515;1314;73617;-71
2021/12/26 13:27:46;;;;;;;22.00;9.40;;;;;;;-2.48;89.72;99719.18;102346;1314;59707;-72